Time;durP1;ratioP1;P1;durP2;ratioP2;P2;SDS_P1;SDS_P2;PMS_P1;PMS_P2;Temp;Humidity;BMP_temperature;BMP_pressure;BME280_temperature;BME280_humidity;BME280_pressure;Samples;Min_cycle;Max_cycle;Signal;HPM_P1;HPM_P2
2022/04/06 00:00:56;;;;;;;8.88;3.75;;;;;;;6.70;84.99;98874.94;5094172;28;20098;-70
2022/04/06 00:03:25;;;;;;;5.63;3.30;;;;;;;6.66;85.30;98870.72;5093738;28;20041;-70
2022/04/06 00:05:54;;;;;;;6.57;3.70;;;;;;;6.71;85.69;98869.88;5093677;28;20051;-70
2022/04/06 00:08:23;;;;;;;7.30;4.35;;;;;;;7.09;85.21;98861.44;5075674;28;20379;-70
2022/04/06 00:10:54;;;;;;;6.90;4.23;;;;;;;7.26;84.80;98857.22;5093982;28;20386;-70
2022/04/06 00:13:23;;;;;;;7.70;4.25;;;;;;;7.25;83.73;98852.97;5093588;28;20281;-70
2022/04/06 00:15:52;;;;;;;8.07;4.53;;;;;;;7.22;83.14;98858.06;5093452;28;20044;-70
2022/04/06 00:18:22;;;;;;;8.45;4.43;;;;;;;7.12;83.59;98853.84;5093742;28;20047;-70
2022/04/06 00:20:51;;;;;;;7.03;3.78;;;;;;;7.26;83.36;98864.81;5093363;28;20054;-70
2022/04/06 00:23:19;;;;;;;7.85;4.47;;;;;;;7.22;83.22;98863.16;5093797;28;20500;-71
2022/04/06 00:25:49;;;;;;;8.52;4.32;;;;;;;6.97;83.10;98861.44;5093478;28;20105;-70
2022/04/06 00:28:19;;;;;;;9.30;4.33;;;;;;;7.07;83.10;98869.06;5093514;28;20572;-70
2022/04/06 00:30:48;;;;;;;6.68;4.00;;;;;;;7.05;83.08;98872.44;5093891;28;20405;-70
2022/04/06 00:33:17;;;;;;;5.53;3.05;;;;;;;6.89;83.11;98878.34;5093511;28;20490;-70
2022/04/06 00:35:46;;;;;;;8.70;4.27;;;;;;;6.98;83.38;98884.25;5093452;28;20055;-70
2022/04/06 00:38:16;;;;;;;7.75;4.38;;;;;;;7.10;83.58;98878.38;5093412;28;20273;-70
2022/04/06 00:40:45;;;;;;;7.07;4.32;;;;;;;7.07;83.40;98864.00;5093353;28;20040;-70
2022/04/06 00:43:15;;;;;;;7.55;4.18;;;;;;;7.05;83.29;98875.84;5093387;28;20048;-70
2022/04/06 00:45:45;;;;;;;;;;;;;;;7.18;83.56;98869.03;5093844;28;20390;-71
2022/04/06 00:48:14;;;;;;;7.85;4.10;;;;;;;7.08;82.45;98865.66;5093998;28;19928;-69
2022/04/06 00:50:43;;;;;;;5.50;3.17;;;;;;;6.87;83.14;98869.88;5093223;28;20040;-70
2022/04/06 00:53:13;;;;;;;6.60;4.20;;;;;;;6.77;83.08;98869.03;5093264;28;20048;-70
2022/04/06 00:55:42;;;;;;;7.28;4.22;;;;;;;6.58;83.44;98863.09;5093266;28;20271;-70
2022/04/06 00:58:11;;;;;;;6.70;4.27;;;;;;;6.65;84.06;98864.78;5093534;28;20067;-70
2022/04/06 01:00:40;;;;;;;9.10;4.45;;;;;;;6.76;84.09;98867.34;5093212;28;20537;-70
2022/04/06 01:03:10;;;;;;;8.73;4.90;;;;;;;6.76;83.98;98872.44;5093529;28;20058;-69
2022/04/06 01:05:39;;;;;;;7.97;4.25;;;;;;;6.95;84.46;98863.13;5093069;28;20077;-70
2022/04/06 01:08:08;;;;;;;8.07;5.27;;;;;;;7.04;84.70;98868.22;5093154;28;20051;-70
2022/04/06 01:10:38;;;;;;;8.43;4.63;;;;;;;7.13;84.10;98873.28;5093086;28;20289;-68
2022/04/06 01:13:08;;;;;;;7.78;4.22;;;;;;;6.96;83.86;98877.53;5093120;28;20296;-70
2022/04/06 01:15:37;;;;;;;9.30;5.13;;;;;;;7.04;84.42;98879.22;5093345;28;20123;-71
2022/04/06 01:18:06;;;;;;;5.38;3.40;;;;;;;7.31;84.52;98879.22;5093863;28;20055;-70
2022/04/06 01:20:36;;;;;;;8.65;5.00;;;;;;;7.44;84.28;98877.47;5092755;28;20052;-69
2022/04/06 01:23:07;;;;;;;10.07;5.63;;;;;;;7.49;83.81;98873.25;5093037;28;20138;-69
2022/04/06 01:25:38;;;;;;;9.07;5.32;;;;;;;7.51;83.78;98876.63;5093271;28;20094;-70
2022/04/06 01:28:08;;;;;;;11.05;5.40;;;;;;;7.44;83.74;98875.78;5095655;28;20036;-70
2022/04/06 01:30:37;;;;;;;10.52;5.43;;;;;;;7.37;84.61;98858.03;5096668;28;20056;-70
2022/04/06 01:33:06;;;;;;;9.47;5.70;;;;;;;7.43;84.55;98873.28;5096625;28;20047;-69
2022/04/06 01:35:38;;;;;;;11.50;5.70;;;;;;;7.40;83.96;98873.28;5078570;28;20273;-70
2022/04/06 01:38:09;;;;;;;9.48;5.22;;;;;;;7.31;84.48;98868.22;5096847;28;20508;-71
2022/04/06 01:40:38;;;;;;;11.45;5.78;;;;;;;7.27;84.31;98874.16;5096808;28;20040;-71
2022/04/06 01:43:07;;;;;;;8.00;5.67;;;;;;;7.24;85.14;98872.44;5096697;28;20402;-70
2022/04/06 01:45:36;;;;;;;10.20;5.10;;;;;;;7.25;84.65;98874.13;5096296;28;20040;-70
2022/04/06 01:48:06;;;;;;;10.63;5.67;;;;;;;7.27;85.41;98877.50;5096138;28;20040;-71
2022/04/06 01:53:15;;;;;;;10.40;5.63;;;;;;;7.26;85.91;98880.91;5096232;28;20070;-71
2022/04/06 01:55:44;;;;;;;10.48;5.80;;;;;;;7.24;85.85;98879.22;5096490;28;20105;-70
2022/04/06 01:58:14;;;;;;;12.32;6.05;;;;;;;7.28;86.43;98883.44;5096259;28;20490;-70
2022/04/06 02:00:43;;;;;;;11.95;6.25;;;;;;;7.29;86.16;98885.13;5096023;28;20044;-70
2022/04/06 02:03:12;;;;;;;11.20;6.10;;;;;;;7.31;86.39;98883.44;5096261;28;20040;-71
2022/04/06 02:05:41;;;;;;;10.73;6.40;;;;;;;7.31;85.99;98891.03;5095996;28;20110;-70
2022/04/06 02:08:10;;;;;;;11.30;6.10;;;;;;;7.30;86.96;98881.72;5095731;28;20040;-70
2022/04/06 02:10:41;;;;;;;12.00;6.32;;;;;;;7.33;86.30;98879.19;5095843;28;20036;-71
2022/04/06 02:13:11;;;;;;;11.70;6.57;;;;;;;7.36;86.47;98881.75;5096173;28;20066;-70
2022/04/06 02:15:40;;;;;;;13.20;6.32;;;;;;;7.28;86.24;98870.75;5096351;28;20464;-69
2022/04/06 02:18:09;;;;;;;11.55;6.88;;;;;;;7.34;86.53;98885.97;5095999;28;20036;-70
2022/04/06 02:20:38;;;;;;;10.70;5.90;;;;;;;7.32;86.76;98885.97;5095431;28;20044;-70
2022/04/06 02:23:10;;;;;;;11.68;6.97;;;;;;;7.31;86.25;98883.44;5096011;28;20273;-70
2022/04/06 02:25:40;;;;;;;10.90;6.10;;;;;;;7.31;87.04;98884.28;5095885;28;20438;-70
2022/04/06 02:28:09;;;;;;;11.07;6.68;;;;;;;7.31;87.17;98878.34;5095404;28;20051;-69
2022/04/06 02:30:38;;;;;;;12.48;7.00;;;;;;;7.32;86.47;98878.34;5095897;28;20043;-70
2022/04/06 02:33:07;;;;;;;9.63;5.37;;;;;;;7.32;86.66;98883.44;5095735;28;20105;-70
2022/04/06 02:35:36;;;;;;;11.43;6.97;;;;;;;7.18;86.34;98886.81;5095319;28;20070;-70
2022/04/06 02:38:05;;;;;;;11.47;6.50;;;;;;;7.20;87.53;98891.03;5095184;28;20051;-70
2022/04/06 02:40:33;;;;;;;11.30;6.37;;;;;;;7.30;87.13;98881.72;5095608;28;20051;-69
2022/04/06 02:43:04;;;;;;;11.60;7.00;;;;;;;7.34;87.67;98875.81;5095173;28;20044;-70
2022/04/06 02:45:33;;;;;;;13.52;6.70;;;;;;;7.38;87.22;98882.59;5095473;28;20276;-70
2022/04/06 02:48:02;;;;;;;12.48;7.40;;;;;;;7.38;86.89;98890.19;5095014;28;20552;-71
2022/04/06 02:50:31;;;;;;;13.50;6.03;;;;;;;7.38;87.18;98882.59;5095324;28;20044;-71
2022/04/06 02:53:00;;;;;;;10.75;4.57;;;;;;;7.30;87.06;98869.03;5095082;28;20042;-71
2022/04/06 02:55:29;;;;;;;10.98;6.15;;;;;;;7.35;86.60;98885.13;5095269;28;20067;-71
2022/04/06 02:57:58;;;;;;;11.70;6.63;;;;;;;7.30;87.38;98876.66;5095545;28;20402;-70
2022/04/06 03:00:30;;;;;;;12.93;7.43;;;;;;;7.30;86.46;98871.59;5094905;28;20051;-71
2022/04/06 03:02:59;;;;;;;12.20;7.18;;;;;;;7.32;87.50;98865.66;5094805;28;20058;-70
2022/04/06 03:05:28;;;;;;;12.10;7.13;;;;;;;7.31;86.99;98870.75;5095072;28;20044;-71
2022/04/06 03:07:57;;;;;;;11.67;6.77;;;;;;;7.26;86.64;98874.97;5094631;28;20047;-71
2022/04/06 03:10:26;;;;;;;12.13;6.45;;;;;;;7.24;87.27;98881.75;5094629;28;20071;-70
2022/04/06 03:12:54;;;;;;;11.38;6.35;;;;;;;7.23;86.90;98880.03;5094572;28;20592;-70
2022/04/06 03:15:29;;;;;;;11.15;6.25;;;;;;;7.22;87.05;98875.84;5094967;28;20067;-70
2022/04/06 03:17:58;;;;;;;13.30;6.57;;;;;;;7.23;87.28;98872.44;5094556;28;20048;-70
2022/04/06 03:20:27;;;;;;;11.63;6.65;;;;;;;7.24;87.26;98876.69;5094469;28;20493;-70
2022/04/06 03:22:56;;;;;;;11.27;6.07;;;;;;;7.25;87.74;98871.59;5094377;28;20044;-71
2022/04/06 03:25:25;;;;;;;10.33;6.27;;;;;;;7.30;87.47;98876.66;5094384;28;20051;-68
2022/04/06 03:27:54;;;;;;;12.10;6.20;;;;;;;7.30;87.53;98866.50;5076374;28;20511;-70
2022/04/06 03:30:23;;;;;;;10.60;6.07;;;;;;;7.26;87.73;98869.91;5060197;28;20056;-70
2022/04/06 03:32:55;;;;;;;10.73;6.22;;;;;;;7.24;87.71;98877.53;5094199;28;20059;-71
2022/04/06 03:35:24;;;;;;;11.05;6.07;;;;;;;7.24;87.85;98871.59;5094328;28;20138;-70
2022/04/06 03:37:53;;;;;;;9.83;5.93;;;;;;;7.25;88.07;98878.34;5094207;28;20044;-70
2022/04/06 03:40:22;;;;;;;8.88;5.53;;;;;;;7.28;88.42;98888.50;5094227;28;20432;-70
2022/04/06 03:42:51;;;;;;;8.77;5.10;;;;;;;7.36;88.08;98881.75;5094457;28;20036;-70
2022/04/06 03:45:21;;;;;;;10.25;5.38;;;;;;;7.43;88.03;98893.59;5093858;28;20048;-70
2022/04/06 03:47:50;;;;;;;9.07;4.95;;;;;;;7.48;88.37;98891.88;5093944;28;20033;-71
2022/04/06 03:50:21;;;;;;;7.60;4.97;;;;;;;7.52;88.32;98888.47;5093719;28;20036;-71
2022/04/06 03:52:50;;;;;;;9.82;5.22;;;;;;;7.57;88.90;98881.72;5094225;28;20490;-70
2022/04/06 03:55:19;;;;;;;9.40;4.97;;;;;;;7.62;88.50;98887.63;5094161;28;20421;-71
2022/04/06 03:57:48;;;;;;;6.03;3.93;;;;;;;7.62;88.60;98885.09;5093919;28;20042;-70
2022/04/06 04:00:18;;;;;;;8.57;4.93;;;;;;;7.61;88.16;98882.53;5093832;28;20774;-70
2022/04/06 04:02:47;;;;;;;;;;;;;;;7.60;88.08;98896.09;5094238;28;20047;-71
2022/04/06 04:05:17;;;;;;;9.63;5.07;;;;;;;7.58;88.04;98898.66;5093969;28;19920;-69
2022/04/06 04:07:48;;;;;;;9.65;5.10;;;;;;;7.58;88.28;98898.66;5094234;28;20040;-69
2022/04/06 04:10:19;;;;;;;25.02;11.23;;;;;;;7.61;87.94;98903.69;5093736;28;20055;-71
2022/04/06 04:12:49;;;;;;;13.95;7.20;;;;;;;7.59;88.08;98886.78;5094249;28;20389;-70
2022/04/06 04:15:18;;;;;;;8.85;5.32;;;;;;;7.62;88.42;98890.16;5093896;28;20508;-70
2022/04/06 04:17:47;;;;;;;8.67;4.70;;;;;;;7.63;87.86;98889.28;5093879;28;20501;-70
2022/04/06 04:20:16;;;;;;;8.50;4.78;;;;;;;7.62;88.01;98892.72;5093304;28;20055;-70
2022/04/06 04:22:46;;;;;;;10.27;5.77;;;;;;;7.62;88.33;98897.78;5093609;28;20069;-70
2022/04/06 04:25:17;;;;;;;10.40;5.70;;;;;;;7.56;88.21;98887.63;5093782;28;20052;-69
2022/04/06 04:27:46;;;;;;;11.23;6.65;;;;;;;7.66;87.86;98891.84;5093835;28;20044;-70
2022/04/06 04:30:14;;;;;;;11.93;6.10;;;;;;;7.68;87.90;98897.75;5093905;28;20070;-69
2022/04/06 04:32:43;;;;;;;11.55;6.57;;;;;;;7.67;87.53;98897.78;5093848;28;20309;-70
2022/04/06 04:35:12;;;;;;;10.07;5.93;;;;;;;7.67;88.32;98893.53;5093417;28;20054;-70
2022/04/06 04:37:41;;;;;;;11.00;6.83;;;;;;;7.64;88.09;98898.63;5093688;28;20078;-70
2022/04/06 04:40:10;;;;;;;9.67;6.43;;;;;;;7.54;87.75;98902.03;5093449;28;20118;-70
2022/04/06 04:42:41;;;;;;;10.32;5.97;;;;;;;7.42;87.47;98899.50;5093380;28;20551;-70
2022/04/06 04:45:11;;;;;;;9.48;5.10;;;;;;;7.41;88.08;98900.34;5093319;28;20048;-69
2022/04/06 04:47:39;;;;;;;;;;;;;;;7.52;88.48;98893.56;5093738;28;20398;-70
2022/04/06 04:50:09;;;;;;;12.48;5.72;;;;;;;7.60;88.30;98907.09;5075499;28;19920;-70
2022/04/06 04:52:38;;;;;;;10.48;5.30;;;;;;;7.64;88.25;98911.31;5093318;28;20151;-70
2022/04/06 04:55:08;;;;;;;9.57;5.70;;;;;;;7.62;87.74;98910.47;5093593;28;20062;-70
2022/04/06 04:57:37;;;;;;;9.23;5.97;;;;;;;7.66;87.95;98911.31;5075867;28;20058;-70
2022/04/06 05:00:09;;;;;;;10.33;5.97;;;;;;;7.69;87.98;98917.25;5093175;28;20050;-70
2022/04/06 05:02:38;;;;;;;12.48;6.03;;;;;;;7.70;88.44;98913.00;5095150;28;20048;-68
2022/04/06 05:05:09;;;;;;;10.27;5.93;;;;;;;7.73;88.03;98918.91;5078998;28;20097;-70
2022/04/06 05:07:38;;;;;;;11.73;5.55;;;;;;;7.78;87.57;98922.28;5097030;28;20048;-70
2022/04/06 05:10:08;;;;;;;10.73;5.80;;;;;;;7.82;88.32;98923.97;5096885;28;20036;-70
2022/04/06 05:12:37;;;;;;;10.52;5.47;;;;;;;7.85;88.31;98928.19;5097310;28;20285;-70
2022/04/06 05:15:10;;;;;;;10.75;5.22;;;;;;;7.86;88.21;98935.84;5096865;28;20052;-71
2022/04/06 05:17:39;;;;;;;10.10;4.80;;;;;;;7.89;88.23;98930.72;5097363;28;20367;-70
2022/04/06 05:20:09;;;;;;;9.30;5.18;;;;;;;7.94;88.32;98923.94;5097152;28;20076;-70
2022/04/06 05:22:38;;;;;;;11.13;5.28;;;;;;;8.00;87.90;98926.47;5097131;28;20048;-70
2022/04/06 05:25:09;;;;;;;5.93;3.80;;;;;;;8.13;87.74;98930.66;5096722;28;20044;-70
2022/04/06 05:27:49;;;;;;;9.93;5.38;;;;;;;8.23;87.87;98928.13;5096927;28;20071;-70
2022/04/06 05:30:21;;;;;;;8.85;4.53;;;;;;;8.31;87.55;98939.97;5096581;28;20044;-70
2022/04/06 05:32:51;;;;;;;7.45;4.68;;;;;;;8.41;87.91;98930.59;5096927;28;20485;-71
2022/04/06 05:35:21;;;;;;;7.45;4.28;;;;;;;8.52;86.89;98928.84;5096881;28;20486;-70
2022/04/06 05:37:50;;;;;;;6.68;4.18;;;;;;;8.68;86.84;98935.56;5096435;28;20039;-70
2022/04/06 05:40:20;;;;;;;11.13;4.07;;;;;;;8.85;87.16;98932.94;5096430;28;20050;-70
2022/04/06 05:42:49;;;;;;;6.97;4.00;;;;;;;9.00;86.25;98937.94;5097009;28;20276;-70
2022/04/06 05:45:19;;;;;;;8.27;4.47;;;;;;;9.16;85.77;98932.72;5096656;28;20516;-70
2022/04/06 05:47:48;;;;;;;7.40;4.22;;;;;;;9.38;84.75;98941.03;5096486;28;20436;-70
2022/04/06 05:50:18;;;;;;;8.73;4.70;;;;;;;9.55;84.28;98938.34;5096311;28;20036;-70
2022/04/06 05:52:48;;;;;;;6.60;4.22;;;;;;;9.78;83.70;98944.06;5096178;28;20067;-71
2022/04/06 05:55:18;;;;;;;6.72;3.90;;;;;;;9.96;82.83;98936.25;5096215;28;20044;-71
2022/04/06 05:57:46;;;;;;;6.82;4.30;;;;;;;10.23;81.57;98951.28;5096061;28;20066;-70
2022/04/06 06:00:17;;;;;;;6.97;4.20;;;;;;;10.63;80.22;98947.38;5096050;28;20071;-71
2022/04/06 06:02:48;;;;;;;7.75;4.50;;;;;;;10.82;79.15;98954.81;5096267;28;20051;-70
2022/04/06 06:05:17;;;;;;;10.05;4.72;;;;;;;10.72;79.08;98957.47;5096049;28;20051;-70
2022/04/06 06:07:46;;;;;;;7.77;4.37;;;;;;;10.83;78.59;98959.88;5095803;28;20047;-70
2022/04/06 06:10:15;;;;;;;7.75;4.47;;;;;;;11.00;78.33;98969.88;5096067;28;20498;-71
2022/04/06 06:12:44;;;;;;;7.47;4.20;;;;;;;11.03;77.96;98967.28;5077400;28;20036;-71
2022/04/06 06:15:13;;;;;;;6.63;4.20;;;;;;;11.10;77.78;98962.06;5095794;28;20498;-70
2022/04/06 06:17:42;;;;;;;6.33;4.03;;;;;;;11.04;77.20;98957.03;5095968;28;20036;-70
2022/04/06 06:20:13;;;;;;;6.78;3.85;;;;;;;11.32;76.26;98965.16;5095753;28;20044;-70
2022/04/06 06:22:42;;;;;;;8.90;3.95;;;;;;;11.41;75.67;98970.13;5095507;28;20048;-70
2022/04/06 06:25:11;;;;;;;6.28;3.83;;;;;;;11.66;75.19;98960.34;5095914;28;20044;-69
2022/04/06 06:27:40;;;;;;;6.25;3.67;;;;;;;11.50;75.15;98964.84;5095867;28;20044;-69
2022/04/06 06:30:13;;;;;;;8.23;3.85;;;;;;;11.36;75.23;98961.66;5095151;28;20421;-69
2022/04/06 06:32:42;;;;;;;5.97;3.63;;;;;;;11.78;74.60;98955.88;5095330;28;20086;-70
2022/04/06 06:35:13;;;;;;;5.85;3.53;;;;;;;12.02;74.16;98955.44;5094517;28;20123;-69
2022/04/06 06:37:49;;;;;;;7.55;3.55;;;;;;;12.13;73.40;98962.09;5095230;28;20127;-70
2022/04/06 06:40:18;;;;;;;6.30;3.72;;;;;;;11.98;72.96;98964.06;5095657;28;20069;-70
2022/04/06 06:42:47;;;;;;;6.53;3.17;;;;;;;11.77;73.32;98969.56;5095454;28;20043;-69
2022/04/06 06:45:16;;;;;;;4.10;2.42;;;;;;;11.28;73.75;98978.81;5095799;28;20086;-69
2022/04/06 06:47:46;;;;;;;6.30;4.03;;;;;;;11.15;74.77;98975.63;5095002;28;20055;-69
2022/04/06 06:50:19;;;;;;;5.85;3.72;;;;;;;11.26;74.51;98980.56;5094986;28;20071;-70
2022/04/06 06:52:48;;;;;;;8.05;3.72;;;;;;;11.08;75.13;98968.91;5095463;28;20109;-69
2022/04/06 06:55:19;;;;;;;11.90;3.53;;;;;;;11.56;74.95;98980.09;5094977;28;20094;-69
2022/04/06 06:57:49;;;;;;;6.68;3.58;;;;;;;12.21;72.78;98973.03;5094956;28;20047;-69
2022/04/06 07:00:18;;;;;;;6.30;3.85;;;;;;;12.53;70.63;98973.25;5088524;28;20040;-69
2022/04/06 07:02:47;;;;;;;5.78;3.40;;;;;;;12.48;70.40;98964.81;5077102;28;20036;-69
2022/04/06 07:05:18;;;;;;;5.50;3.55;;;;;;;12.02;72.22;98970.78;5078694;28;20068;-69
2022/04/06 07:07:52;;;;;;;5.32;3.22;;;;;;;11.75;72.38;98966.19;5094930;28;20048;-68
2022/04/06 07:10:21;;;;;;;5.00;3.55;;;;;;;11.79;72.76;98949.91;5094676;28;20485;-68
2022/04/06 07:12:51;;;;;;;6.00;3.55;;;;;;;12.05;72.04;98969.91;5094661;28;20047;-69
2022/04/06 07:15:20;;;;;;;11.38;4.05;;;;;;;11.94;72.73;98966.69;5094604;28;20435;-69
2022/04/06 07:17:51;;;;;;;;;;;;;;;11.84;73.64;98960.91;5094984;28;20040;-69
2022/04/06 07:20:21;;;;;;;6.63;3.30;;;;;;;11.85;73.37;98962.56;5094609;28;20274;-68
2022/04/06 07:22:51;;;;;;;5.28;3.35;;;;;;;11.72;73.60;98958.56;5094439;28;20055;-68
2022/04/06 07:25:20;;;;;;;;;;;;;;;11.95;74.21;98961.53;5094063;28;20052;-70
2022/04/06 07:27:49;;;;;;;6.65;3.30;;;;;;;12.26;73.42;98966.94;5088513;28;19943;-71
2022/04/06 07:30:18;;;;;;;5.43;3.10;;;;;;;12.58;72.64;98958.63;5094035;28;20040;-69
2022/04/06 07:32:48;;;;;;;5.50;3.03;;;;;;;12.75;72.15;98959.13;5094298;28;20040;-70
2022/04/06 07:35:17;;;;;;;6.30;3.50;;;;;;;13.36;70.71;98964.59;5089898;28;20412;-69
2022/04/06 07:37:49;;;;;;;5.03;3.13;;;;;;;13.29;70.31;98963.06;5082634;28;20308;-69
2022/04/06 07:40:19;;;;;;;5.15;3.10;;;;;;;13.12;70.64;98965.19;5073954;28;20060;-70
2022/04/06 07:42:49;;;;;;;5.70;3.50;;;;;;;12.96;71.41;98963.78;5073912;28;20052;-68
2022/04/06 07:45:20;;;;;;;5.53;3.30;;;;;;;13.23;71.25;98970.91;5073783;28;20040;-68
2022/04/06 07:47:50;;;;;;;7.88;3.22;;;;;;;13.16;71.32;98977.03;5073710;28;20131;-68
2022/04/06 07:50:21;;;;;;;5.32;2.95;;;;;;;13.21;70.96;98977.78;5073676;28;20131;-69
2022/04/06 07:53:08;;;;;;;6.35;3.20;;;;;;;13.00;70.97;98975.66;5073661;28;20044;-69
2022/04/06 07:55:39;;;;;;;5.32;3.10;;;;;;;12.91;71.31;98970.72;5074129;28;20455;-70
2022/04/06 07:58:07;;;;;;;4.85;3.30;;;;;;;13.15;71.94;98965.09;5084609;28;20052;-70
2022/04/06 08:00:36;;;;;;;5.45;3.42;;;;;;;13.26;71.21;98963.16;5073448;28;20135;-68
2022/04/06 08:03:05;;;;;;;6.80;3.60;;;;;;;13.54;70.28;98965.03;5073923;28;20123;-69
2022/04/06 08:05:35;;;;;;;6.30;2.87;;;;;;;13.85;69.03;98959.13;5073523;28;20068;-70
2022/04/06 08:08:04;;;;;;;4.85;2.65;;;;;;;14.25;67.19;98963.22;5073911;28;20465;-70
2022/04/06 08:10:35;;;;;;;5.90;3.80;;;;;;;14.75;65.99;98958.38;5073593;28;20041;-68
2022/04/06 08:13:07;;;;;;;5.20;3.17;;;;;;;15.33;64.42;98964.34;5073456;28;20070;-67
2022/04/06 08:15:36;;;;;;;5.35;3.30;;;;;;;15.29;64.38;98965.31;5073502;28;20044;-70
2022/04/06 08:18:07;;;;;;;4.65;2.70;;;;;;;15.36;62.57;98964.22;5073347;28;20079;-69
2022/04/06 08:20:36;;;;;;;3.92;2.90;;;;;;;15.11;62.25;98969.31;5073528;28;20505;-69
2022/04/06 08:23:05;;;;;;;4.73;2.97;;;;;;;14.92;64.26;98969.88;5073442;28;20045;-70
2022/04/06 08:25:36;;;;;;;4.05;2.33;;;;;;;14.64;65.81;98969.84;5092837;28;20616;-69
2022/04/06 08:28:07;;;;;;;4.80;3.00;;;;;;;14.26;64.89;98955.47;5093683;28;20478;-69
2022/04/06 08:30:39;;;;;;;6.78;3.80;;;;;;;14.39;66.30;98972.25;5091075;28;20079;-69
2022/04/06 08:33:11;;;;;;;4.28;2.75;;;;;;;14.35;65.65;98972.41;5092954;28;20055;-69
2022/04/06 08:35:41;;;;;;;4.60;2.90;;;;;;;14.28;64.60;98968.25;5093566;28;20066;-70
2022/04/06 08:38:12;;;;;;;5.25;3.25;;;;;;;14.23;65.56;98960.69;5095604;28;20076;-70
2022/04/06 08:40:44;;;;;;;5.22;3.22;;;;;;;14.21;65.71;98972.72;5092081;28;20036;-70
2022/04/06 08:43:15;;;;;;;6.10;3.30;;;;;;;14.16;66.70;98978.88;5095002;28;20044;-70
2022/04/06 08:45:44;;;;;;;6.25;3.40;;;;;;;14.11;66.16;98974.69;5097517;28;20493;-69
2022/04/06 08:48:13;;;;;;;6.20;3.17;;;;;;;14.13;66.14;98964.41;5097420;28;20058;-69
2022/04/06 08:50:44;;;;;;;6.75;3.38;;;;;;;14.26;65.84;98972.59;5097452;28;20044;-69
2022/04/06 08:53:13;;;;;;;5.22;3.35;;;;;;;14.43;66.22;98976.41;5097207;28;20486;-70
2022/04/06 08:55:44;;;;;;;5.77;3.40;;;;;;;14.64;64.75;98973.25;5097343;28;20044;-70
2022/04/06 08:58:13;;;;;;;6.05;2.75;;;;;;;14.92;64.76;98972.47;5097256;28;20401;-70
2022/04/06 09:00:42;;;;;;;3.45;2.50;;;;;;;14.93;64.23;98963.84;5097146;28;20043;-70
2022/04/06 09:03:11;;;;;;;5.22;3.22;;;;;;;14.84;63.66;98966.69;5097560;28;20548;-71
2022/04/06 09:05:40;;;;;;;5.13;3.20;;;;;;;14.89;64.87;98962.25;5094757;28;20040;-70
2022/04/06 09:08:09;;;;;;;4.97;3.13;;;;;;;15.03;64.12;98955.81;5095151;28;20066;-70
2022/04/06 09:10:42;;;;;;;5.50;3.03;;;;;;;15.18;63.42;98955.38;5093666;28;20564;-70
2022/04/06 09:13:15;;;;;;;5.25;3.28;;;;;;;15.40;63.01;98955.53;5096822;28;20044;-70
2022/04/06 09:15:45;;;;;;;5.50;3.33;;;;;;;15.81;61.43;98949.88;5094131;28;20048;-70
2022/04/06 09:18:15;;;;;;;5.13;3.10;;;;;;;15.77;61.33;98950.91;5096465;28;20044;-69
2022/04/06 09:20:43;;;;;;;;;;;;;;;15.70;60.46;98946.84;5094746;28;20182;-71
2022/04/06 09:23:14;;;;;;;4.93;3.05;;;;;;;15.96;60.23;98946.81;5096283;28;19924;-69
2022/04/06 09:25:43;;;;;;;4.68;2.60;;;;;;;16.14;59.21;98952.22;5093784;28;20040;-69
2022/04/06 09:28:15;;;;;;;3.67;2.30;;;;;;;16.05;58.78;98943.91;5096144;28;20115;-69
2022/04/06 09:30:46;;;;;;;5.28;2.78;;;;;;;16.34;59.25;98947.22;5094121;28;20303;-70
2022/04/06 09:33:18;;;;;;;4.35;2.60;;;;;;;16.86;57.93;98931.53;5096536;28;20068;-68
2022/04/06 09:35:48;;;;;;;5.82;2.58;;;;;;;17.61;55.78;98932.84;5096429;28;20075;-69
2022/04/06 09:38:19;;;;;;;;;;;;;;;18.25;54.44;98930.13;5099259;28;20131;-70
2022/04/06 09:40:49;;;;;;;4.00;2.30;;;;;;;18.26;53.59;98930.06;5096749;28;19942;-69
2022/04/06 09:43:32;;;;;;;4.53;2.40;;;;;;;18.62;52.80;98925.88;5096407;28;20048;-70
2022/04/06 09:49:00;;;;;;;4.50;2.55;;;;;;;18.24;53.04;98918.09;5097155;28;20044;-69
2022/04/06 09:51:29;;;;;;;5.22;2.20;;;;;;;18.44;52.13;98921.50;5096092;28;20048;-70
2022/04/06 09:54:00;;;;;;;2.85;1.80;;;;;;;18.47;51.37;98916.25;5096524;28;20421;-70
2022/04/06 09:56:30;;;;;;;2.67;1.67;;;;;;;18.04;50.46;98906.09;5096112;28;20051;-71
2022/04/06 09:59:07;;;;;;;2.65;1.65;;;;;;;18.01;51.83;98901.03;5096164;28;20063;-70
2022/04/06 10:01:38;;;;;;;4.05;2.25;;;;;;;18.12;50.98;98903.16;5095886;28;20063;-69
2022/04/06 10:04:09;;;;;;;3.28;1.77;;;;;;;19.30;50.79;98898.53;5076031;28;20106;-69
2022/04/06 10:06:39;;;;;;;3.25;1.83;;;;;;;19.80;49.24;98894.28;5077440;28;20071;-69
2022/04/06 10:09:11;;;;;;;3.88;2.05;;;;;;;18.19;51.62;98900.22;5095766;28;20067;-70
2022/04/06 10:11:41;;;;;;;2.80;1.70;;;;;;;17.56;51.80;98882.34;5096394;28;20087;-70
2022/04/06 10:14:12;;;;;;;3.45;1.77;;;;;;;17.14;53.09;98885.75;5093803;28;20109;-69
2022/04/06 10:16:44;;;;;;;3.33;2.00;;;;;;;17.00;54.46;98882.88;5104656;28;20089;-70
2022/04/06 10:19:16;;;;;;;3.28;2.08;;;;;;;16.80;54.77;98874.22;5116443;28;20439;-68
2022/04/06 10:21:53;;;;;;;3.38;2.08;;;;;;;16.61;54.27;98876.66;5108639;28;20075;-69
2022/04/06 10:24:36;;;;;;;3.53;2.10;;;;;;;16.45;55.22;98873.81;5092440;28;20040;-69
2022/04/06 10:27:12;;;;;;;3.42;1.80;;;;;;;16.42;54.16;98875.66;5090111;28;20050;-68
2022/04/06 10:30:03;;;;;;;3.38;2.10;;;;;;;16.28;55.25;98860.72;5095845;28;20402;-69
2022/04/06 10:32:37;;;;;;;4.40;2.22;;;;;;;16.25;54.76;98798.19;5095639;28;20390;-70
2022/04/06 10:35:18;;;;;;;4.00;2.35;;;;;;;17.96;52.69;98835.84;5095265;28;20083;-70
2022/04/06 10:37:53;;;;;;;5.40;2.30;;;;;;;18.01;52.32;98837.34;5098418;28;20039;-70
2022/04/06 10:40:23;;;;;;;3.58;2.20;;;;;;;19.41;51.04;98838.53;5115677;28;20051;-69
2022/04/06 10:42:52;;;;;;;3.85;2.30;;;;;;;19.75;48.82;98830.69;5116330;28;20047;-70
2022/04/06 10:45:35;;;;;;;3.70;2.13;;;;;;;19.70;48.99;98841.28;5115835;28;20109;-68
2022/04/06 10:48:13;;;;;;;3.50;1.88;;;;;;;19.63;48.19;98836.50;5115818;28;20048;-70
2022/04/06 10:50:44;;;;;;;3.25;2.20;;;;;;;19.53;49.01;98833.53;5097563;28;20052;-70
2022/04/06 10:53:27;;;;;;;3.42;2.03;;;;;;;19.13;50.13;98818.28;5109052;28;20044;-68
2022/04/06 10:55:58;;;;;;;3.22;1.83;;;;;;;18.53;50.21;98822.06;5093354;28;20040;-70
2022/04/06 10:58:27;;;;;;;2.95;1.67;;;;;;;19.63;49.92;98826.16;5092361;28;20577;-69
2022/04/06 11:01:16;;;;;;;3.53;1.88;;;;;;;19.92;48.31;98826.31;5093372;28;20036;-70
2022/04/06 11:03:58;;;;;;;5.25;1.98;;;;;;;20.05;47.13;98806.66;5091626;28;20508;-69
2022/04/06 11:06:52;;;;;;;3.72;1.92;;;;;;;20.20;47.38;98815.34;5082130;28;20047;-69
2022/04/06 11:12:10;;;;;;;3.05;1.95;;;;;;;19.83;47.68;98811.28;5111334;28;20493;-70
2022/04/06 11:14:40;;;;;;;3.97;1.70;;;;;;;18.52;51.06;98808.31;5094854;28;20070;-70
2022/04/06 11:17:30;;;;;;;3.50;1.92;;;;;;;17.87;52.23;98800.97;5094312;28;20449;-70
2022/04/06 11:20:07;;;;;;;3.20;1.80;;;;;;;17.93;52.70;98794.66;5094427;28;20044;-69
2022/04/06 11:22:38;;;;;;;3.65;1.70;;;;;;;19.41;50.12;98797.09;5094113;28;20493;-69
2022/04/06 11:25:11;;;;;;;2.85;1.58;;;;;;;19.89;47.63;98789.41;5094386;28;20046;-71
2022/04/06 11:27:42;;;;;;;3.45;1.80;;;;;;;20.27;47.20;98789.97;5093651;28;20048;-70
2022/04/06 11:30:13;;;;;;;2.80;1.70;;;;;;;19.82;48.88;98799.22;5076555;28;20083;-70
2022/04/06 11:32:44;;;;;;;1.90;1.20;;;;;;;18.66;48.98;98798.19;5094101;28;20044;-70
2022/04/06 11:35:15;;;;;;;1.85;1.10;;;;;;;18.13;49.82;98792.03;5094326;28;20048;-71
2022/04/06 11:37:46;;;;;;;2.50;1.20;;;;;;;17.80;51.72;98796.13;5104288;28;20051;-69
2022/04/06 11:40:17;;;;;;;2.05;1.30;;;;;;;17.54;52.01;98793.84;5114723;28;20110;-69
2022/04/06 11:42:49;;;;;;;4.43;1.70;;;;;;;17.42;52.78;98793.41;5114838;28;20043;-70
2022/04/06 11:45:22;;;;;;;2.55;1.58;;;;;;;17.35;54.04;98786.84;5114458;28;20062;-70
2022/04/06 11:47:56;;;;;;;7.63;1.65;;;;;;;17.86;51.83;98763.13;5110498;28;20040;-70
2022/04/06 11:50:31;;;;;;;3.20;1.90;;;;;;;17.57;53.43;98773.06;5103675;28;20365;-69
2022/04/06 11:53:02;;;;;;;5.70;2.30;;;;;;;18.45;51.03;98769.88;5094098;28;20537;-71
2022/04/06 11:55:44;;;;;;;4.95;2.40;;;;;;;17.91;50.93;98765.50;5091947;28;20032;-68
2022/04/06 11:58:29;;;;;;;3.78;1.70;;;;;;;17.66;52.78;98759.78;5097100;28;20096;-71
2022/04/06 12:00:59;;;;;;;2.78;1.60;;;;;;;17.85;51.17;98745.94;5092238;28;20047;-69